sensor_id;sensor_type;location;lat;lon;timestamp;P1;durP1;ratioP1;P2;durP2;ratioP2
33268;SDS011;19640;50.944;5.260;2024-01-16T00:01:45;12.75;;;3.13;;
33268;SDS011;19640;50.944;5.260;2024-01-16T00:04:11;7.75;;;3.17;;
33268;SDS011;19640;50.944;5.260;2024-01-16T00:06:40;5.53;;;3.10;;
33268;SDS011;19640;50.944;5.260;2024-01-16T00:09:07;4.78;;;3.17;;
33268;SDS011;19640;50.944;5.260;2024-01-16T00:11:33;8.07;;;3.78;;
33268;SDS011;19640;50.944;5.260;2024-01-16T00:13:59;3.65;;;2.92;;
33268;SDS011;19640;50.944;5.260;2024-01-16T00:16:25;5.80;;;3.08;;
33268;SDS011;19640;50.944;5.260;2024-01-16T00:18:50;6.30;;;3.33;;
33268;SDS011;19640;50.944;5.260;2024-01-16T00:21:16;7.72;;;3.38;;
33268;SDS011;19640;50.944;5.260;2024-01-16T00:23:41;6.15;;;3.33;;
33268;SDS011;19640;50.944;5.260;2024-01-16T00:26:07;7.15;;;3.47;;
33268;SDS011;19640;50.944;5.260;2024-01-16T00:28:33;12.43;;;3.30;;
33268;SDS011;19640;50.944;5.260;2024-01-16T00:30:59;4.38;;;2.88;;
33268;SDS011;19640;50.944;5.260;2024-01-16T00:33:25;10.07;;;3.70;;
33268;SDS011;19640;50.944;5.260;2024-01-16T00:35:52;9.85;;;4.03;;
33268;SDS011;19640;50.944;5.260;2024-01-16T00:38:18;10.25;;;3.75;;
33268;SDS011;19640;50.944;5.260;2024-01-16T00:40:43;12.90;;;3.83;;
33268;SDS011;19640;50.944;5.260;2024-01-16T00:43:09;7.72;;;3.17;;
33268;SDS011;19640;50.944;5.260;2024-01-16T00:45:35;8.93;;;3.35;;
33268;SDS011;19640;50.944;5.260;2024-01-16T00:48:01;7.88;;;3.45;;
33268;SDS011;19640;50.944;5.260;2024-01-16T00:50:27;9.45;;;3.22;;
33268;SDS011;19640;50.944;5.260;2024-01-16T00:52:52;7.68;;;3.63;;
33268;SDS011;19640;50.944;5.260;2024-01-16T00:55:18;8.52;;;3.97;;
33268;SDS011;19640;50.944;5.260;2024-01-16T00:57:44;12.00;;;3.50;;
33268;SDS011;19640;50.944;5.260;2024-01-16T01:00:09;6.15;;;3.13;;
33268;SDS011;19640;50.944;5.260;2024-01-16T01:02:36;10.02;;;4.03;;
33268;SDS011;19640;50.944;5.260;2024-01-16T01:05:02;7.13;;;3.88;;
33268;SDS011;19640;50.944;5.260;2024-01-16T01:07:28;11.23;;;3.80;;
33268;SDS011;19640;50.944;5.260;2024-01-16T01:09:53;8.15;;;3.75;;
33268;SDS011;19640;50.944;5.260;2024-01-16T01:12:19;8.00;;;3.85;;
33268;SDS011;19640;50.944;5.260;2024-01-16T01:14:45;6.38;;;3.53;;
33268;SDS011;19640;50.944;5.260;2024-01-16T01:17:10;7.45;;;3.17;;
33268;SDS011;19640;50.944;5.260;2024-01-16T01:19:36;7.38;;;3.65;;
33268;SDS011;19640;50.944;5.260;2024-01-16T01:22:02;11.75;;;3.63;;
33268;SDS011;19640;50.944;5.260;2024-01-16T01:24:27;6.85;;;3.70;;
33268;SDS011;19640;50.944;5.260;2024-01-16T01:26:53;6.13;;;3.78;;
33268;SDS011;19640;50.944;5.260;2024-01-16T01:29:19;5.88;;;3.08;;
33268;SDS011;19640;50.944;5.260;2024-01-16T01:31:47;8.25;;;3.03;;
33268;SDS011;19640;50.944;5.260;2024-01-16T01:34:13;9.48;;;3.65;;
33268;SDS011;19640;50.944;5.260;2024-01-16T01:36:39;7.68;;;3.65;;
33268;SDS011;19640;50.944;5.260;2024-01-16T01:39:04;8.50;;;3.15;;
33268;SDS011;19640;50.944;5.260;2024-01-16T01:41:30;19.77;;;3.28;;
33268;SDS011;19640;50.944;5.260;2024-01-16T01:43:56;9.40;;;3.75;;
33268;SDS011;19640;50.944;5.260;2024-01-16T01:46:22;6.88;;;3.22;;
33268;SDS011;19640;50.944;5.260;2024-01-16T01:48:48;13.20;;;3.13;;
33268;SDS011;19640;50.944;5.260;2024-01-16T01:51:16;10.45;;;3.50;;
33268;SDS011;19640;50.944;5.260;2024-01-16T01:53:43;6.10;;;3.45;;
33268;SDS011;19640;50.944;5.260;2024-01-16T01:56:11;9.00;;;3.40;;
33268;SDS011;19640;50.944;5.260;2024-01-16T01:58:40;14.50;;;3.28;;
33268;SDS011;19640;50.944;5.260;2024-01-16T02:01:08;5.88;;;3.63;;
33268;SDS011;19640;50.944;5.260;2024-01-16T02:03:35;8.52;;;3.13;;
33268;SDS011;19640;50.944;5.260;2024-01-16T02:06:10;5.75;;;3.08;;
33268;SDS011;19640;50.944;5.260;2024-01-16T02:08:37;9.88;;;3.40;;
33268;SDS011;19640;50.944;5.260;2024-01-16T02:11:05;14.77;;;2.88;;
33268;SDS011;19640;50.944;5.260;2024-01-16T02:13:31;6.68;;;3.40;;
33268;SDS011;19640;50.944;5.260;2024-01-16T02:15:57;17.05;;;2.95;;
33268;SDS011;19640;50.944;5.260;2024-01-16T02:18:22;6.00;;;3.25;;
33268;SDS011;19640;50.944;5.260;2024-01-16T02:20:48;6.50;;;3.03;;
33268;SDS011;19640;50.944;5.260;2024-01-16T02:23:14;8.20;;;2.90;;
33268;SDS011;19640;50.944;5.260;2024-01-16T02:25:43;7.57;;;2.90;;
33268;SDS011;19640;50.944;5.260;2024-01-16T02:28:09;8.50;;;3.20;;
33268;SDS011;19640;50.944;5.260;2024-01-16T02:30:35;5.22;;;3.08;;
33268;SDS011;19640;50.944;5.260;2024-01-16T02:33:01;6.35;;;2.92;;
33268;SDS011;19640;50.944;5.260;2024-01-16T02:35:28;15.45;;;3.78;;
33268;SDS011;19640;50.944;5.260;2024-01-16T02:37:54;5.25;;;2.92;;
33268;SDS011;19640;50.944;5.260;2024-01-16T02:40:20;12.02;;;3.65;;
33268;SDS011;19640;50.944;5.260;2024-01-16T02:42:45;13.95;;;3.30;;
33268;SDS011;19640;50.944;5.260;2024-01-16T02:45:11;10.77;;;3.42;;
33268;SDS011;19640;50.944;5.260;2024-01-16T02:47:38;5.05;;;2.83;;
33268;SDS011;19640;50.944;5.260;2024-01-16T02:50:04;6.18;;;2.90;;
33268;SDS011;19640;50.944;5.260;2024-01-16T02:52:30;6.53;;;3.40;;
33268;SDS011;19640;50.944;5.260;2024-01-16T02:54:56;10.52;;;3.25;;
33268;SDS011;19640;50.944;5.260;2024-01-16T02:57:22;9.18;;;3.08;;
33268;SDS011;19640;50.944;5.260;2024-01-16T02:59:47;9.57;;;3.15;;
33268;SDS011;19640;50.944;5.260;2024-01-16T03:02:13;10.45;;;2.95;;
33268;SDS011;19640;50.944;5.260;2024-01-16T03:04:39;10.32;;;2.58;;
33268;SDS011;19640;50.944;5.260;2024-01-16T03:07:05;5.55;;;3.15;;
33268;SDS011;19640;50.944;5.260;2024-01-16T03:09:30;7.38;;;2.70;;
33268;SDS011;19640;50.944;5.260;2024-01-16T03:11:56;7.70;;;2.80;;
33268;SDS011;19640;50.944;5.260;2024-01-16T03:14:23;10.93;;;2.63;;
33268;SDS011;19640;50.944;5.260;2024-01-16T03:16:48;7.20;;;2.70;;
33268;SDS011;19640;50.944;5.260;2024-01-16T03:19:14;10.20;;;2.78;;
33268;SDS011;19640;50.944;5.260;2024-01-16T03:21:39;7.57;;;3.15;;
33268;SDS011;19640;50.944;5.260;2024-01-16T03:24:06;14.02;;;3.05;;
33268;SDS011;19640;50.944;5.260;2024-01-16T03:26:32;10.88;;;3.85;;
33268;SDS011;19640;50.944;5.260;2024-01-16T03:28:58;7.40;;;2.53;;
33268;SDS011;19640;50.944;5.260;2024-01-16T03:31:24;5.60;;;2.55;;
33268;SDS011;19640;50.944;5.260;2024-01-16T03:33:50;10.73;;;2.85;;
33268;SDS011;19640;50.944;5.260;2024-01-16T03:36:15;9.15;;;2.85;;
33268;SDS011;19640;50.944;5.260;2024-01-16T03:38:42;10.23;;;2.83;;
33268;SDS011;19640;50.944;5.260;2024-01-16T03:41:08;7.22;;;2.67;;
33268;SDS011;19640;50.944;5.260;2024-01-16T03:43:35;8.73;;;2.85;;
33268;SDS011;19640;50.944;5.260;2024-01-16T03:46:01;4.43;;;2.63;;
33268;SDS011;19640;50.944;5.260;2024-01-16T03:48:27;5.60;;;2.20;;
33268;SDS011;19640;50.944;5.260;2024-01-16T03:50:54;7.57;;;2.97;;
33268;SDS011;19640;50.944;5.260;2024-01-16T03:53:20;10.13;;;3.25;;
33268;SDS011;19640;50.944;5.260;2024-01-16T03:55:46;14.50;;;2.70;;
33268;SDS011;19640;50.944;5.260;2024-01-16T03:58:12;7.20;;;2.42;;
33268;SDS011;19640;50.944;5.260;2024-01-16T04:00:38;5.68;;;3.08;;
33268;SDS011;19640;50.944;5.260;2024-01-16T04:03:04;3.90;;;2.58;;
33268;SDS011;19640;50.944;5.260;2024-01-16T04:05:30;7.00;;;2.80;;
33268;SDS011;19640;50.944;5.260;2024-01-16T04:07:59;6.28;;;2.85;;
33268;SDS011;19640;50.944;5.260;2024-01-16T04:10:25;9.30;;;3.30;;
33268;SDS011;19640;50.944;5.260;2024-01-16T04:12:51;4.88;;;2.42;;
33268;SDS011;19640;50.944;5.260;2024-01-16T04:15:17;6.45;;;2.53;;
33268;SDS011;19640;50.944;5.260;2024-01-16T04:17:42;6.75;;;2.58;;
33268;SDS011;19640;50.944;5.260;2024-01-16T04:20:08;8.23;;;2.63;;
33268;SDS011;19640;50.944;5.260;2024-01-16T04:22:34;6.22;;;2.42;;
33268;SDS011;19640;50.944;5.260;2024-01-16T04:25:00;4.97;;;2.58;;
33268;SDS011;19640;50.944;5.260;2024-01-16T04:27:26;6.20;;;2.65;;
33268;SDS011;19640;50.944;5.260;2024-01-16T04:29:52;6.03;;;2.70;;
33268;SDS011;19640;50.944;5.260;2024-01-16T04:32:18;7.07;;;2.63;;
33268;SDS011;19640;50.944;5.260;2024-01-16T04:34:44;9.20;;;2.70;;
33268;SDS011;19640;50.944;5.260;2024-01-16T04:37:09;8.23;;;2.30;;
33268;SDS011;19640;50.944;5.260;2024-01-16T04:39:36;6.93;;;2.97;;
33268;SDS011;19640;50.944;5.260;2024-01-16T04:42:02;8.70;;;2.75;;
33268;SDS011;19640;50.944;5.260;2024-01-16T04:44:27;8.90;;;2.60;;
33268;SDS011;19640;50.944;5.260;2024-01-16T04:46:53;9.40;;;2.90;;
33268;SDS011;19640;50.944;5.260;2024-01-16T04:49:19;11.15;;;3.05;;
33268;SDS011;19640;50.944;5.260;2024-01-16T04:51:44;8.23;;;2.92;;
33268;SDS011;19640;50.944;5.260;2024-01-16T04:54:10;12.35;;;2.70;;
33268;SDS011;19640;50.944;5.260;2024-01-16T04:56:37;6.15;;;2.10;;
33268;SDS011;19640;50.944;5.260;2024-01-16T04:59:03;11.27;;;2.95;;
33268;SDS011;19640;50.944;5.260;2024-01-16T05:01:28;10.52;;;2.85;;
33268;SDS011;19640;50.944;5.260;2024-01-16T05:03:54;6.18;;;2.83;;
33268;SDS011;19640;50.944;5.260;2024-01-16T05:06:20;7.65;;;2.72;;
33268;SDS011;19640;50.944;5.260;2024-01-16T05:08:46;11.43;;;3.28;;
33268;SDS011;19640;50.944;5.260;2024-01-16T05:11:12;7.63;;;3.00;;
33268;SDS011;19640;50.944;5.260;2024-01-16T05:13:38;4.65;;;2.92;;
33268;SDS011;19640;50.944;5.260;2024-01-16T05:16:04;11.93;;;3.58;;
33268;SDS011;19640;50.944;5.260;2024-01-16T05:18:30;9.48;;;3.15;;
33268;SDS011;19640;50.944;5.260;2024-01-16T05:20:57;6.95;;;3.22;;
33268;SDS011;19640;50.944;5.260;2024-01-16T05:23:23;10.30;;;3.78;;
33268;SDS011;19640;50.944;5.260;2024-01-16T05:25:49;8.68;;;3.63;;
33268;SDS011;19640;50.944;5.260;2024-01-16T05:28:15;11.45;;;4.18;;
33268;SDS011;19640;50.944;5.260;2024-01-16T05:30:40;7.85;;;4.00;;
33268;SDS011;19640;50.944;5.260;2024-01-16T05:33:06;12.25;;;4.47;;
33268;SDS011;19640;50.944;5.260;2024-01-16T05:35:32;12.05;;;4.80;;
33268;SDS011;19640;50.944;5.260;2024-01-16T05:37:58;14.13;;;4.72;;
33268;SDS011;19640;50.944;5.260;2024-01-16T05:40:24;11.85;;;4.80;;
33268;SDS011;19640;50.944;5.260;2024-01-16T05:42:50;16.30;;;4.55;;
33268;SDS011;19640;50.944;5.260;2024-01-16T05:45:16;7.70;;;4.20;;
33268;SDS011;19640;50.944;5.260;2024-01-16T05:47:42;14.48;;;5.50;;
33268;SDS011;19640;50.944;5.260;2024-01-16T05:50:08;15.13;;;4.60;;
33268;SDS011;19640;50.944;5.260;2024-01-16T05:52:34;14.25;;;5.18;;
33268;SDS011;19640;50.944;5.260;2024-01-16T05:55:00;9.23;;;5.25;;
33268;SDS011;19640;50.944;5.260;2024-01-16T05:57:28;12.00;;;4.22;;
33268;SDS011;19640;50.944;5.260;2024-01-16T05:59:57;8.50;;;3.53;;
33268;SDS011;19640;50.944;5.260;2024-01-16T06:02:22;8.35;;;4.55;;
33268;SDS011;19640;50.944;5.260;2024-01-16T06:04:49;11.55;;;4.60;;
33268;SDS011;19640;50.944;5.260;2024-01-16T06:07:15;9.00;;;4.38;;
33268;SDS011;19640;50.944;5.260;2024-01-16T06:09:41;14.63;;;4.70;;
33268;SDS011;19640;50.944;5.260;2024-01-16T06:12:07;11.23;;;4.65;;
33268;SDS011;19640;50.944;5.260;2024-01-16T06:14:33;9.85;;;5.75;;
33268;SDS011;19640;50.944;5.260;2024-01-16T06:16:59;10.75;;;4.90;;
33268;SDS011;19640;50.944;5.260;2024-01-16T06:19:25;11.32;;;5.28;;
33268;SDS011;19640;50.944;5.260;2024-01-16T06:21:51;11.55;;;4.68;;
33268;SDS011;19640;50.944;5.260;2024-01-16T06:24:17;9.27;;;4.18;;
33268;SDS011;19640;50.944;5.260;2024-01-16T06:26:42;11.35;;;4.68;;
33268;SDS011;19640;50.944;5.260;2024-01-16T06:29:08;14.48;;;4.18;;
33268;SDS011;19640;50.944;5.260;2024-01-16T06:31:34;10.57;;;4.15;;
33268;SDS011;19640;50.944;5.260;2024-01-16T06:34:00;12.00;;;4.25;;
33268;SDS011;19640;50.944;5.260;2024-01-16T06:36:26;10.85;;;5.15;;
33268;SDS011;19640;50.944;5.260;2024-01-16T06:38:51;14.93;;;5.20;;
33268;SDS011;19640;50.944;5.260;2024-01-16T06:41:17;11.00;;;5.07;;
33268;SDS011;19640;50.944;5.260;2024-01-16T06:43:43;18.38;;;5.45;;
33268;SDS011;19640;50.944;5.260;2024-01-16T06:46:08;16.15;;;5.07;;
33268;SDS011;19640;50.944;5.260;2024-01-16T06:48:35;11.77;;;5.32;;
33268;SDS011;19640;50.944;5.260;2024-01-16T06:51:04;11.90;;;4.82;;
33268;SDS011;19640;50.944;5.260;2024-01-16T06:53:30;9.63;;;4.30;;
33268;SDS011;19640;50.944;5.260;2024-01-16T06:55:56;8.25;;;4.60;;
33268;SDS011;19640;50.944;5.260;2024-01-16T06:58:22;20.00;;;5.75;;
33268;SDS011;19640;50.944;5.260;2024-01-16T07:00:47;9.38;;;4.53;;
33268;SDS011;19640;50.944;5.260;2024-01-16T07:03:13;6.82;;;4.15;;
33268;SDS011;19640;50.944;5.260;2024-01-16T07:05:39;11.80;;;4.90;;
33268;SDS011;19640;50.944;5.260;2024-01-16T07:08:08;18.10;;;6.05;;
33268;SDS011;19640;50.944;5.260;2024-01-16T07:10:35;12.23;;;5.95;;
33268;SDS011;19640;50.944;5.260;2024-01-16T07:13:01;7.38;;;4.03;;
33268;SDS011;19640;50.944;5.260;2024-01-16T07:15:27;9.32;;;5.03;;
33268;SDS011;19640;50.944;5.260;2024-01-16T07:17:53;11.85;;;5.65;;
33268;SDS011;19640;50.944;5.260;2024-01-16T07:20:19;8.55;;;5.03;;
33268;SDS011;19640;50.944;5.260;2024-01-16T07:22:48;10.52;;;5.45;;
33268;SDS011;19640;50.944;5.260;2024-01-16T07:25:13;16.15;;;5.95;;
33268;SDS011;19640;50.944;5.260;2024-01-16T07:27:39;14.65;;;6.47;;
33268;SDS011;19640;50.944;5.260;2024-01-16T07:30:05;11.70;;;5.65;;
33268;SDS011;19640;50.944;5.260;2024-01-16T07:32:32;11.23;;;5.70;;
33268;SDS011;19640;50.944;5.260;2024-01-16T07:34:58;11.50;;;5.72;;
33268;SDS011;19640;50.944;5.260;2024-01-16T07:37:24;13.93;;;5.63;;
33268;SDS011;19640;50.944;5.260;2024-01-16T07:39:49;18.13;;;6.03;;
33268;SDS011;19640;50.944;5.260;2024-01-16T07:42:15;11.15;;;5.28;;
33268;SDS011;19640;50.944;5.260;2024-01-16T07:44:41;10.77;;;4.57;;
33268;SDS011;19640;50.944;5.260;2024-01-16T07:47:06;10.52;;;5.05;;
33268;SDS011;19640;50.944;5.260;2024-01-16T07:49:33;22.48;;;5.65;;
33268;SDS011;19640;50.944;5.260;2024-01-16T07:51:59;8.30;;;5.10;;
33268;SDS011;19640;50.944;5.260;2024-01-16T07:54:24;10.25;;;4.10;;
33268;SDS011;19640;50.944;5.260;2024-01-16T07:56:51;13.13;;;5.85;;
33268;SDS011;19640;50.944;5.260;2024-01-16T07:59:17;15.13;;;5.60;;
33268;SDS011;19640;50.944;5.260;2024-01-16T08:01:42;14.80;;;5.88;;
33268;SDS011;19640;50.944;5.260;2024-01-16T08:04:08;8.23;;;4.93;;
33268;SDS011;19640;50.944;5.260;2024-01-16T08:06:34;15.32;;;5.57;;
33268;SDS011;19640;50.944;5.260;2024-01-16T08:09:00;14.00;;;4.85;;
33268;SDS011;19640;50.944;5.260;2024-01-16T08:11:25;13.30;;;5.18;;
33268;SDS011;19640;50.944;5.260;2024-01-16T08:13:51;17.92;;;5.70;;
33268;SDS011;19640;50.944;5.260;2024-01-16T08:16:17;15.50;;;5.78;;
33268;SDS011;19640;50.944;5.260;2024-01-16T08:18:42;11.38;;;5.47;;
33268;SDS011;19640;50.944;5.260;2024-01-16T08:21:08;12.10;;;5.43;;
33268;SDS011;19640;50.944;5.260;2024-01-16T08:23:34;12.45;;;5.70;;
33268;SDS011;19640;50.944;5.260;2024-01-16T08:26:00;16.63;;;4.78;;
33268;SDS011;19640;50.944;5.260;2024-01-16T08:28:26;13.25;;;4.70;;
33268;SDS011;19640;50.944;5.260;2024-01-16T08:30:52;13.07;;;5.28;;
33268;SDS011;19640;50.944;5.260;2024-01-16T08:33:18;10.32;;;4.80;;
33268;SDS011;19640;50.944;5.260;2024-01-16T08:35:44;15.75;;;5.32;;
33268;SDS011;19640;50.944;5.260;2024-01-16T08:38:10;11.77;;;4.25;;
33268;SDS011;19640;50.944;5.260;2024-01-16T08:40:35;12.63;;;5.35;;
33268;SDS011;19640;50.944;5.260;2024-01-16T08:43:01;17.10;;;5.22;;
33268;SDS011;19640;50.944;5.260;2024-01-16T08:45:28;13.90;;;5.15;;
33268;SDS011;19640;50.944;5.260;2024-01-16T08:47:54;12.18;;;5.75;;
33268;SDS011;19640;50.944;5.260;2024-01-16T08:50:20;12.85;;;5.10;;
33268;SDS011;19640;50.944;5.260;2024-01-16T08:52:46;18.55;;;5.95;;
33268;SDS011;19640;50.944;5.260;2024-01-16T08:55:12;18.63;;;5.60;;
33268;SDS011;19640;50.944;5.260;2024-01-16T08:57:37;11.88;;;5.75;;
33268;SDS011;19640;50.944;5.260;2024-01-16T09:00:04;11.48;;;4.47;;
33268;SDS011;19640;50.944;5.260;2024-01-16T09:02:31;13.38;;;5.80;;
33268;SDS011;19640;50.944;5.260;2024-01-16T09:04:57;12.15;;;4.90;;
33268;SDS011;19640;50.944;5.260;2024-01-16T09:07:23;10.45;;;4.95;;
33268;SDS011;19640;50.944;5.260;2024-01-16T09:09:50;10.27;;;4.63;;
33268;SDS011;19640;50.944;5.260;2024-01-16T09:12:16;10.27;;;4.63;;
33268;SDS011;19640;50.944;5.260;2024-01-16T09:14:41;16.63;;;5.40;;
33268;SDS011;19640;50.944;5.260;2024-01-16T09:17:07;9.35;;;5.00;;
33268;SDS011;19640;50.944;5.260;2024-01-16T09:19:33;11.43;;;5.07;;
33268;SDS011;19640;50.944;5.260;2024-01-16T09:21:59;8.00;;;4.88;;
33268;SDS011;19640;50.944;5.260;2024-01-16T09:24:24;9.38;;;4.68;;
33268;SDS011;19640;50.944;5.260;2024-01-16T09:26:50;10.98;;;4.72;;
33268;SDS011;19640;50.944;5.260;2024-01-16T09:29:16;7.32;;;4.38;;
33268;SDS011;19640;50.944;5.260;2024-01-16T09:31:42;11.32;;;5.38;;
33268;SDS011;19640;50.944;5.260;2024-01-16T09:34:07;9.88;;;5.07;;
33268;SDS011;19640;50.944;5.260;2024-01-16T09:36:33;15.40;;;5.40;;
33268;SDS011;19640;50.944;5.260;2024-01-16T09:39:02;12.07;;;5.88;;
33268;SDS011;19640;50.944;5.260;2024-01-16T09:41:32;9.07;;;4.93;;
33268;SDS011;19640;50.944;5.260;2024-01-16T09:43:59;11.57;;;5.30;;
33268;SDS011;19640;50.944;5.260;2024-01-16T09:46:25;9.13;;;5.07;;
33268;SDS011;19640;50.944;5.260;2024-01-16T09:48:54;15.25;;;5.30;;
33268;SDS011;19640;50.944;5.260;2024-01-16T09:51:21;11.05;;;4.93;;
33268;SDS011;19640;50.944;5.260;2024-01-16T09:53:47;12.43;;;5.25;;
33268;SDS011;19640;50.944;5.260;2024-01-16T09:56:16;9.35;;;4.28;;
33268;SDS011;19640;50.944;5.260;2024-01-16T09:58:45;9.55;;;4.47;;
33268;SDS011;19640;50.944;5.260;2024-01-16T10:01:14;7.43;;;4.57;;
33268;SDS011;19640;50.944;5.260;2024-01-16T10:03:44;9.43;;;4.05;;
33268;SDS011;19640;50.944;5.260;2024-01-16T10:06:10;7.85;;;3.70;;
33268;SDS011;19640;50.944;5.260;2024-01-16T10:08:37;11.85;;;4.55;;
33268;SDS011;19640;50.944;5.260;2024-01-16T10:11:03;10.60;;;4.53;;
33268;SDS011;19640;50.944;5.260;2024-01-16T10:13:29;6.70;;;4.47;;
33268;SDS011;19640;50.944;5.260;2024-01-16T10:15:56;7.70;;;3.95;;
33268;SDS011;19640;50.944;5.260;2024-01-16T10:18:23;6.00;;;2.40;;
33268;SDS011;19640;50.944;5.260;2024-01-16T10:21:02;8.60;;;4.05;;
33268;SDS011;19640;50.944;5.260;2024-01-16T10:23:32;8.07;;;4.65;;
33268;SDS011;19640;50.944;5.260;2024-01-16T10:26:07;7.65;;;4.63;;
33268;SDS011;19640;50.944;5.260;2024-01-16T10:28:40;7.72;;;4.07;;
33268;SDS011;19640;50.944;5.260;2024-01-16T10:31:08;6.22;;;4.10;;
33268;SDS011;19640;50.944;5.260;2024-01-16T10:33:35;11.15;;;4.28;;
33268;SDS011;19640;50.944;5.260;2024-01-16T10:38:40;10.68;;;4.28;;
33268;SDS011;19640;50.944;5.260;2024-01-16T10:41:14;9.57;;;5.18;;
33268;SDS011;19640;50.944;5.260;2024-01-16T10:43:42;11.75;;;4.50;;
33268;SDS011;19640;50.944;5.260;2024-01-16T10:46:10;7.90;;;4.50;;
33268;SDS011;19640;50.944;5.260;2024-01-16T10:48:37;9.77;;;4.50;;
33268;SDS011;19640;50.944;5.260;2024-01-16T10:51:05;9.20;;;4.10;;
33268;SDS011;19640;50.944;5.260;2024-01-16T10:53:32;8.65;;;4.15;;
33268;SDS011;19640;50.944;5.260;2024-01-16T10:55:59;9.75;;;4.25;;
33268;SDS011;19640;50.944;5.260;2024-01-16T10:58:27;8.88;;;4.25;;
33268;SDS011;19640;50.944;5.260;2024-01-16T11:01:00;8.57;;;4.03;;
33268;SDS011;19640;50.944;5.260;2024-01-16T11:03:35;6.95;;;3.80;;
33268;SDS011;19640;50.944;5.260;2024-01-16T11:08:36;5.68;;;3.28;;
33268;SDS011;19640;50.944;5.260;2024-01-16T11:11:03;6.30;;;4.03;;
33268;SDS011;19640;50.944;5.260;2024-01-16T11:13:33;10.25;;;3.83;;
33268;SDS011;19640;50.944;5.260;2024-01-16T11:16:03;8.98;;;4.60;;
33268;SDS011;19640;50.944;5.260;2024-01-16T11:18:30;13.05;;;5.07;;
33268;SDS011;19640;50.944;5.260;2024-01-16T11:21:00;14.10;;;4.70;;
33268;SDS011;19640;50.944;5.260;2024-01-16T11:23:29;9.88;;;3.83;;
33268;SDS011;19640;50.944;5.260;2024-01-16T11:25:55;9.18;;;5.55;;
33268;SDS011;19640;50.944;5.260;2024-01-16T11:28:20;6.95;;;4.53;;
33268;SDS011;19640;50.944;5.260;2024-01-16T11:30:54;10.63;;;4.43;;
33268;SDS011;19640;50.944;5.260;2024-01-16T11:35:57;9.15;;;4.60;;
33268;SDS011;19640;50.944;5.260;2024-01-16T11:38:24;7.93;;;3.88;;
33268;SDS011;19640;50.944;5.260;2024-01-16T11:40:55;8.70;;;4.47;;
33268;SDS011;19640;50.944;5.260;2024-01-16T11:46:05;5.80;;;3.72;;
33268;SDS011;19640;50.944;5.260;2024-01-16T11:48:35;6.25;;;3.75;;
33268;SDS011;19640;50.944;5.260;2024-01-16T11:51:00;9.85;;;4.28;;
33268;SDS011;19640;50.944;5.260;2024-01-16T11:53:49;11.13;;;4.10;;
33268;SDS011;19640;50.944;5.260;2024-01-16T12:01:18;8.43;;;3.83;;
33268;SDS011;19640;50.944;5.260;2024-01-16T12:04:01;8.50;;;4.28;;
33268;SDS011;19640;50.944;5.260;2024-01-16T12:06:30;9.05;;;4.60;;
33268;SDS011;19640;50.944;5.260;2024-01-16T12:11:37;6.63;;;3.88;;
33268;SDS011;19640;50.944;5.260;2024-01-16T12:14:02;7.47;;;3.67;;
33268;SDS011;19640;50.944;5.260;2024-01-16T12:16:29;8.52;;;4.07;;
33268;SDS011;19640;50.944;5.260;2024-01-16T12:19:04;8.88;;;3.97;;
33268;SDS011;19640;50.944;5.260;2024-01-16T12:21:32;11.73;;;4.03;;
33268;SDS011;19640;50.944;5.260;2024-01-16T12:23:58;6.40;;;3.92;;
33268;SDS011;19640;50.944;5.260;2024-01-16T12:26:24;11.27;;;4.15;;
33268;SDS011;19640;50.944;5.260;2024-01-16T12:28:53;7.78;;;3.35;;
33268;SDS011;19640;50.944;5.260;2024-01-16T12:31:19;8.40;;;3.70;;
33268;SDS011;19640;50.944;5.260;2024-01-16T12:33:44;8.25;;;4.47;;
33268;SDS011;19640;50.944;5.260;2024-01-16T12:36:10;6.05;;;3.55;;
33268;SDS011;19640;50.944;5.260;2024-01-16T12:38:36;8.05;;;4.07;;
33268;SDS011;19640;50.944;5.260;2024-01-16T12:41:01;9.30;;;4.03;;
33268;SDS011;19640;50.944;5.260;2024-01-16T12:43:32;6.53;;;3.42;;
33268;SDS011;19640;50.944;5.260;2024-01-16T12:45:58;14.75;;;3.72;;
33268;SDS011;19640;50.944;5.260;2024-01-16T12:48:27;7.40;;;3.60;;
33268;SDS011;19640;50.944;5.260;2024-01-16T12:50:59;10.90;;;4.30;;
33268;SDS011;19640;50.944;5.260;2024-01-16T12:53:27;6.93;;;3.20;;
33268;SDS011;19640;50.944;5.260;2024-01-16T12:56:00;8.88;;;3.75;;
33268;SDS011;19640;50.944;5.260;2024-01-16T12:58:33;8.25;;;3.60;;
33268;SDS011;19640;50.944;5.260;2024-01-16T13:01:20;9.90;;;2.97;;
33268;SDS011;19640;50.944;5.260;2024-01-16T13:03:49;4.35;;;2.80;;
33268;SDS011;19640;50.944;5.260;2024-01-16T13:06:19;6.60;;;3.20;;
33268;SDS011;19640;50.944;5.260;2024-01-16T13:08:46;8.45;;;3.15;;
33268;SDS011;19640;50.944;5.260;2024-01-16T13:11:13;9.15;;;3.25;;
33268;SDS011;19640;50.944;5.260;2024-01-16T13:13:45;7.72;;;3.40;;
33268;SDS011;19640;50.944;5.260;2024-01-16T13:16:16;5.25;;;2.67;;
33268;SDS011;19640;50.944;5.260;2024-01-16T13:18:42;11.95;;;3.95;;
33268;SDS011;19640;50.944;5.260;2024-01-16T13:21:08;8.20;;;3.70;;
33268;SDS011;19640;50.944;5.260;2024-01-16T13:23:34;7.82;;;3.20;;
33268;SDS011;19640;50.944;5.260;2024-01-16T13:26:00;10.07;;;3.22;;
33268;SDS011;19640;50.944;5.260;2024-01-16T13:28:29;7.30;;;2.95;;
33268;SDS011;19640;50.944;5.260;2024-01-16T13:30:55;5.95;;;2.95;;
33268;SDS011;19640;50.944;5.260;2024-01-16T13:33:22;6.68;;;3.67;;
33268;SDS011;19640;50.944;5.260;2024-01-16T13:35:52;7.15;;;3.42;;
33268;SDS011;19640;50.944;5.260;2024-01-16T13:38:19;9.55;;;3.42;;
33268;SDS011;19640;50.944;5.260;2024-01-16T13:40:46;4.45;;;2.95;;
33268;SDS011;19640;50.944;5.260;2024-01-16T13:43:11;7.80;;;3.05;;
33268;SDS011;19640;50.944;5.260;2024-01-16T13:45:38;7.88;;;3.17;;
33268;SDS011;19640;50.944;5.260;2024-01-16T13:48:04;6.80;;;2.45;;
33268;SDS011;19640;50.944;5.260;2024-01-16T13:50:34;7.40;;;2.80;;
33268;SDS011;19640;50.944;5.260;2024-01-16T13:53:00;6.90;;;3.20;;
33268;SDS011;19640;50.944;5.260;2024-01-16T13:55:27;7.32;;;2.95;;
33268;SDS011;19640;50.944;5.260;2024-01-16T13:57:53;11.13;;;2.97;;
33268;SDS011;19640;50.944;5.260;2024-01-16T14:00:19;7.63;;;3.55;;
33268;SDS011;19640;50.944;5.260;2024-01-16T14:02:46;15.45;;;3.75;;
33268;SDS011;19640;50.944;5.260;2024-01-16T14:05:13;5.60;;;2.65;;
33268;SDS011;19640;50.944;5.260;2024-01-16T14:07:46;7.82;;;2.70;;
33268;SDS011;19640;50.944;5.260;2024-01-16T14:10:15;5.47;;;2.85;;
33268;SDS011;19640;50.944;5.260;2024-01-16T14:12:42;5.75;;;2.60;;
33268;SDS011;19640;50.944;5.260;2024-01-16T14:15:09;7.75;;;2.53;;
33268;SDS011;19640;50.944;5.260;2024-01-16T14:17:43;8.02;;;2.72;;
33268;SDS011;19640;50.944;5.260;2024-01-16T14:20:17;6.30;;;3.05;;
33268;SDS011;19640;50.944;5.260;2024-01-16T14:25:18;7.63;;;2.63;;
33268;SDS011;19640;50.944;5.260;2024-01-16T14:28:05;9.27;;;2.97;;
33268;SDS011;19640;50.944;5.260;2024-01-16T14:30:34;9.27;;;3.55;;
33268;SDS011;19640;50.944;5.260;2024-01-16T14:33:00;5.35;;;2.83;;
33268;SDS011;19640;50.944;5.260;2024-01-16T14:35:26;11.45;;;3.22;;
33268;SDS011;19640;50.944;5.260;2024-01-16T14:37:52;11.13;;;3.58;;
33268;SDS011;19640;50.944;5.260;2024-01-16T14:40:18;5.78;;;3.08;;
33268;SDS011;19640;50.944;5.260;2024-01-16T14:42:54;6.50;;;2.78;;
33268;SDS011;19640;50.944;5.260;2024-01-16T14:45:24;9.73;;;3.05;;
33268;SDS011;19640;50.944;5.260;2024-01-16T14:47:52;12.73;;;2.70;;
33268;SDS011;19640;50.944;5.260;2024-01-16T14:50:21;10.80;;;3.15;;
33268;SDS011;19640;50.944;5.260;2024-01-16T14:52:49;3.88;;;2.60;;
33268;SDS011;19640;50.944;5.260;2024-01-16T14:55:16;7.40;;;2.97;;
33268;SDS011;19640;50.944;5.260;2024-01-16T14:57:42;8.27;;;3.15;;
33268;SDS011;19640;50.944;5.260;2024-01-16T15:00:09;4.70;;;2.92;;
33268;SDS011;19640;50.944;5.260;2024-01-16T15:02:49;3.50;;;2.50;;